Time;durP1;ratioP1;P1;durP2;ratioP2;P2;SDS_P1;SDS_P2;PMS_P1;PMS_P2;Temp;Humidity;BMP_temperature;BMP_pressure;BME280_temperature;BME280_humidity;BME280_pressure;Samples;Min_cycle;Max_cycle;Signal;HPM_P1;HPM_P2
2021/03/24 00:00:23;;;;;;;18.45;10.55;;;;;;;6.07;69.63;100436.13;5116489;28;20433;-57
2021/03/24 00:03:07;;;;;;;23.60;11.48;;;;;;;6.04;69.56;100436.13;5118190;28;20075;-57
2021/03/24 00:05:35;;;;;;;22.75;10.93;;;;;;;6.05;69.37;100432.66;5116636;28;20043;-57
2021/03/24 00:08:01;;;;;;;24.15;13.00;;;;;;;6.01;69.39;100430.03;5117289;27;20048;-57
2021/03/24 00:10:28;;;;;;;23.88;12.05;;;;;;;5.97;69.78;100429.16;5117893;28;20055;-57
2021/03/24 00:12:54;;;;;;;23.90;12.93;;;;;;;5.95;69.53;100430.91;5116586;28;20107;-57
2021/03/24 00:15:20;;;;;;;19.05;12.02;;;;;;;5.95;69.73;100432.66;5116746;28;20047;-57
2021/03/24 00:17:45;;;;;;;20.80;11.77;;;;;;;5.95;69.58;100440.44;5116261;28;20050;-57
2021/03/24 00:20:12;;;;;;;21.75;11.20;;;;;;;5.95;69.44;100435.25;5099292;28;20043;-57
2021/03/24 00:22:38;;;;;;;23.98;12.38;;;;;;;5.98;69.33;100432.63;5116115;28;20442;-57
2021/03/24 00:25:05;;;;;;;24.63;12.52;;;;;;;6.01;69.16;100432.63;5117055;28;20039;-57
2021/03/24 00:27:31;;;;;;;20.58;10.82;;;;;;;5.93;68.86;100427.44;5116842;28;20356;-57
2021/03/24 00:29:56;;;;;;;22.67;11.52;;;;;;;5.95;68.66;100428.31;5117002;28;20039;-57
2021/03/24 00:32:22;;;;;;;20.58;11.43;;;;;;;5.93;68.66;100424.81;5116261;28;20054;-57
2021/03/24 00:34:48;;;;;;;20.33;12.32;;;;;;;5.86;68.99;100434.28;5116025;28;20490;-57
2021/03/24 00:37:14;;;;;;;21.90;11.90;;;;;;;5.97;68.44;100426.56;5098968;28;20045;-57
2021/03/24 00:39:40;;;;;;;24.40;12.68;;;;;;;5.97;68.89;100423.97;5117071;28;20109;-57
2021/03/24 00:42:06;;;;;;;26.40;13.20;;;;;;;5.96;68.77;100417.03;5099210;28;20148;-57
2021/03/24 00:44:32;;;;;;;27.70;13.13;;;;;;;5.91;68.96;100426.50;5116913;28;20044;-57
2021/03/24 00:46:57;;;;;;;22.55;11.98;;;;;;;5.94;68.91;100426.56;5117323;28;20435;-57
2021/03/24 00:49:24;;;;;;;20.38;10.85;;;;;;;6.02;68.78;100424.84;5116759;28;20055;-57
2021/03/24 00:51:50;;;;;;;23.73;13.27;;;;;;;6.01;68.54;100419.63;5116568;28;20055;-57
2021/03/24 00:54:16;;;;;;;21.67;11.88;;;;;;;5.94;68.86;100429.16;5116882;28;20040;-57
2021/03/24 00:56:42;;;;;;;26.55;13.13;;;;;;;5.90;69.10;100424.78;5116565;28;20085;-57
2021/03/24 00:59:08;;;;;;;27.00;13.32;;;;;;;5.94;68.95;100421.34;5116598;28;20110;-57
2021/03/24 01:01:34;;;;;;;23.50;12.07;;;;;;;5.91;68.99;100415.25;5098931;28;20059;-57
2021/03/24 01:04:00;;;;;;;21.40;11.93;;;;;;;5.86;68.79;100400.50;5115860;28;20055;-57
2021/03/24 01:06:25;;;;;;;18.67;11.43;;;;;;;5.84;68.97;100406.56;5116655;28;20071;-57
2021/03/24 01:08:54;;;;;;;24.73;11.98;;;;;;;5.84;68.70;100404.81;5115973;28;20116;-57
2021/03/24 01:11:20;;;;;;;24.23;12.45;;;;;;;5.72;69.56;100409.09;5116671;28;20073;-57
2021/03/24 01:13:45;;;;;;;23.13;11.82;;;;;;;5.79;69.30;100400.47;5116428;28;20114;-57
2021/03/24 01:16:11;;;;;;;20.23;12.38;;;;;;;5.81;69.09;100409.13;5116362;28;20104;-57
2021/03/24 01:18:37;;;;;;;20.92;11.38;;;;;;;5.84;68.83;100407.41;5115410;28;20058;-57
2021/03/24 01:21:03;;;;;;;24.77;12.30;;;;;;;5.82;69.37;100414.34;5115470;28;20047;-57
2021/03/24 01:23:29;;;;;;;22.08;11.40;;;;;;;5.83;69.17;100416.09;5116218;28;20047;-57
2021/03/24 01:25:54;;;;;;;18.92;10.65;;;;;;;5.77;69.05;100410.84;5117597;28;20039;-57
2021/03/24 01:28:23;;;;;;;18.38;9.60;;;;;;;5.95;68.68;100419.66;5085776;28;20071;-57
2021/03/24 01:30:49;;;;;;;19.45;10.63;;;;;;;5.95;68.69;100417.91;5119769;28;20081;-57
2021/03/24 01:33:14;;;;;;;18.05;10.05;;;;;;;5.97;68.58;100413.56;5120388;28;20434;-57
2021/03/24 01:35:40;;;;;;;22.17;10.50;;;;;;;5.89;68.60;100420.44;5119682;28;20334;-57
2021/03/24 01:38:07;;;;;;;18.65;10.13;;;;;;;5.98;68.47;100417.91;5119642;28;20044;-57
2021/03/24 01:40:41;;;;;;;18.27;9.88;;;;;;;6.03;68.16;100412.72;5120675;28;20062;-57
2021/03/24 01:43:28;;;;;;;21.77;10.50;;;;;;;6.05;68.07;100409.25;5120417;28;20062;-57
2021/03/24 01:46:19;;;;;;;25.70;11.10;;;;;;;6.01;67.81;100417.03;5120586;28;20425;-57
2021/03/24 01:48:45;;;;;;;21.38;10.43;;;;;;;5.93;68.24;100409.22;5120311;28;20047;-57
2021/03/24 01:51:11;;;;;;;17.60;9.60;;;;;;;5.99;68.13;100413.59;5102079;28;20468;-57
2021/03/24 01:53:37;;;;;;;18.58;10.68;;;;;;;6.03;68.19;100417.91;5119034;28;20062;-57
2021/03/24 01:56:03;;;;;;;15.43;9.38;;;;;;;6.05;67.99;100409.25;5118986;28;20050;-57
2021/03/24 01:58:29;;;;;;;18.25;9.63;;;;;;;6.07;68.12;100409.25;5119283;28;20051;-57
2021/03/24 02:00:55;;;;;;;18.83;9.57;;;;;;;6.08;67.83;100413.63;5119203;28;20335;-57
2021/03/24 02:03:23;;;;;;;14.00;8.68;;;;;;;6.11;67.83;100410.13;5120026;28;20355;-57
2021/03/24 02:05:49;;;;;;;17.98;9.57;;;;;;;6.12;68.00;100409.28;5102290;28;20039;-57
2021/03/24 02:08:20;;;;;;;17.38;9.15;;;;;;;6.14;67.97;100412.75;5119477;28;20062;-57
2021/03/24 02:10:50;;;;;;;15.90;8.75;;;;;;;6.15;67.92;100404.09;5118943;28;20101;-57
2021/03/24 02:13:41;;;;;;;18.95;9.57;;;;;;;6.12;67.53;100412.75;5119602;28;20035;-57
2021/03/24 02:16:13;;;;;;;17.02;10.02;;;;;;;6.12;68.11;100412.75;5102717;28;20040;-57
2021/03/24 02:18:39;;;;;;;20.90;9.77;;;;;;;6.06;68.38;100410.13;5119487;28;20044;-57
2021/03/24 02:21:20;;;;;;;15.10;8.73;;;;;;;6.12;68.20;100417.94;5118516;28;20055;-57
2021/03/24 02:23:51;;;;;;;18.05;9.30;;;;;;;6.08;68.39;100422.28;5119109;28;20092;-57
2021/03/24 02:26:53;;;;;;;19.70;10.25;;;;;;;6.07;68.29;100412.72;5102377;28;20409;-57
2021/03/24 02:29:20;;;;;;;16.77;10.05;;;;;;;5.91;69.17;100413.50;5119263;28;20051;-57
2021/03/24 02:31:45;;;;;;;22.20;10.52;;;;;;;5.99;69.04;100413.59;5068306;28;20139;-57
2021/03/24 02:34:14;;;;;;;24.52;10.30;;;;;;;5.99;69.11;100414.44;5119399;28;20333;-57
2021/03/24 02:36:40;;;;;;;22.00;10.75;;;;;;;5.97;69.17;100412.69;5101325;28;20047;-57
2021/03/24 02:39:11;;;;;;;19.73;10.50;;;;;;;6.01;68.98;100415.34;5100724;28;20040;-57
2021/03/24 02:41:37;;;;;;;15.38;9.50;;;;;;;5.91;69.54;100413.50;5118533;28;20066;-57
2021/03/24 02:44:03;;;;;;;20.50;9.90;;;;;;;5.94;69.52;100405.75;5119233;28;20048;-57
2021/03/24 02:46:29;;;;;;;19.70;10.15;;;;;;;5.94;69.30;100416.16;5101074;28;20061;-57
2021/03/24 02:48:54;;;;;;;15.77;9.20;;;;;;;5.96;69.08;100414.44;5118275;28;20059;-57
2021/03/24 02:51:23;;;;;;;17.90;9.77;;;;;;;5.98;68.96;100412.72;5118211;28;20040;-57
2021/03/24 02:53:49;;;;;;;16.40;9.05;;;;;;;5.81;68.96;100389.19;5117897;28;20051;-57
2021/03/24 02:56:15;;;;;;;17.65;10.35;;;;;;;5.94;69.14;100415.28;5118164;28;20130;-57
2021/03/24 02:58:40;;;;;;;18.58;9.48;;;;;;;5.86;69.53;100420.44;5118978;28;20437;-57
2021/03/24 03:01:11;;;;;;;17.80;9.77;;;;;;;5.88;69.49;100418.69;5118864;28;20058;-57
2021/03/24 03:03:38;;;;;;;18.00;10.20;;;;;;;5.89;69.46;100419.59;5100884;28;20036;-57
2021/03/24 03:06:04;;;;;;;22.15;10.95;;;;;;;5.88;69.30;100415.22;5100510;28;20039;-57
2021/03/24 03:08:34;;;;;;;17.88;11.05;;;;;;;5.89;69.49;100422.19;5117581;28;20087;-57
2021/03/24 03:11:23;;;;;;;18.05;10.20;;;;;;;5.85;69.53;100416.13;5100887;28;20035;-57
2021/03/24 03:13:58;;;;;;;21.95;12.05;;;;;;;5.83;69.47;100423.03;5117061;28;20055;-57
2021/03/24 03:16:44;;;;;;;18.85;10.43;;;;;;;5.77;69.67;100415.19;5101655;28;20063;-57
2021/03/24 03:19:32;;;;;;;20.00;10.45;;;;;;;5.79;69.59;100416.94;5117649;28;20066;-56
2021/03/24 03:22:13;;;;;;;16.90;9.45;;;;;;;5.79;69.68;100416.09;5117633;28;20116;-57
2021/03/24 03:24:44;;;;;;;18.73;9.80;;;;;;;5.75;69.86;100416.91;5100702;28;20039;-57
2021/03/24 03:27:12;;;;;;;16.65;10.00;;;;;;;5.74;69.72;100420.38;5083765;28;20177;-57
2021/03/24 03:29:39;;;;;;;17.80;9.57;;;;;;;5.78;69.69;100432.53;5117147;28;20055;-57
2021/03/24 03:32:05;;;;;;;13.73;9.13;;;;;;;5.79;69.45;100434.28;5117115;28;20391;-56
2021/03/24 03:34:31;;;;;;;17.27;10.15;;;;;;;5.78;69.46;100425.59;5117499;28;20104;-57
2021/03/24 03:36:57;;;;;;;19.58;9.43;;;;;;;5.79;69.67;100426.47;5118203;28;20131;-56
2021/03/24 03:39:25;;;;;;;27.77;10.88;;;;;;;5.78;69.56;100430.78;5117025;28;20035;-56
2021/03/24 03:41:51;;;;;;;20.88;9.45;;;;;;;5.74;69.78;100425.56;5116880;28;20055;-56
2021/03/24 03:44:17;;;;;;;16.73;9.63;;;;;;;5.75;69.79;100430.81;5116921;28;20040;-57
2021/03/24 03:46:49;;;;;;;16.83;8.77;;;;;;;5.78;69.72;100419.53;5117945;28;20098;-57
2021/03/24 03:49:15;;;;;;;17.88;9.70;;;;;;;5.74;69.78;100425.56;5099526;28;20051;-57
2021/03/24 03:51:56;;;;;;;14.15;8.95;;;;;;;5.74;69.93;100417.78;5117533;28;20081;-57
2021/03/24 03:54:33;;;;;;;14.35;8.68;;;;;;;5.72;69.89;100420.38;5117885;28;20047;-57
2021/03/24 03:57:18;;;;;;;17.60;10.30;;;;;;;5.71;69.70;100416.03;5116782;28;20044;-57
2021/03/24 03:59:56;;;;;;;17.90;8.90;;;;;;;5.73;69.81;100418.66;5116613;28;20429;-57
2021/03/24 04:02:25;;;;;;;16.30;9.05;;;;;;;5.72;69.99;100411.69;5116908;28;20096;-57
2021/03/24 04:04:56;;;;;;;15.05;8.85;;;;;;;5.73;70.04;100414.31;5099759;28;20446;-57
2021/03/24 04:07:48;;;;;;;16.50;9.82;;;;;;;5.73;69.81;100414.31;5116520;28;20126;-56
2021/03/24 04:10:14;;;;;;;17.60;8.77;;;;;;;5.63;70.03;100415.16;5117605;28;20051;-57
2021/03/24 04:12:40;;;;;;;15.77;9.07;;;;;;;5.67;69.94;100419.47;5116608;28;20391;-57
2021/03/24 04:15:10;;;;;;;19.52;9.45;;;;;;;5.63;70.15;100413.41;5116632;28;20361;-57
2021/03/24 04:17:39;;;;;;;17.67;8.98;;;;;;;5.66;70.11;100415.16;5116356;28;20071;-57
2021/03/24 04:20:05;;;;;;;14.70;8.30;;;;;;;5.64;70.14;100409.06;5116264;28;20050;-57
2021/03/24 04:22:31;;;;;;;16.42;9.00;;;;;;;5.67;69.81;100409.09;5099594;28;20052;-57
2021/03/24 04:24:57;;;;;;;14.50;7.60;;;;;;;5.70;69.90;100413.44;5116137;28;20120;-57
2021/03/24 04:27:32;;;;;;;14.02;8.13;;;;;;;5.71;69.51;100417.75;5116377;28;20068;-57
2021/03/24 04:30:06;;;;;;;15.60;8.75;;;;;;;5.65;69.73;100412.53;5099743;28;20051;-57
2021/03/24 04:32:32;;;;;;;16.55;8.23;;;;;;;5.62;70.05;100415.97;5099439;28;20046;-56
2021/03/24 04:34:58;;;;;;;16.00;9.02;;;;;;;5.60;69.86;100418.59;5116282;28;20056;-56
2021/03/24 04:37:32;;;;;;;16.48;8.32;;;;;;;5.63;69.73;100422.94;5117079;28;20430;-57
2021/03/24 04:40:07;;;;;;;13.57;7.88;;;;;;;5.62;70.08;100410.78;5117108;28;20043;-57
2021/03/24 04:42:39;;;;;;;13.73;8.43;;;;;;;5.60;70.16;100420.31;5116263;28;20049;-57
2021/03/24 04:45:22;;;;;;;17.73;8.63;;;;;;;5.57;70.16;100420.31;5099243;28;20040;-57
2021/03/24 04:47:50;;;;;;;16.07;8.33;;;;;;;5.43;70.62;100421.94;5116076;28;20062;-57
2021/03/24 04:50:21;;;;;;;21.80;9.93;;;;;;;5.48;70.62;100421.13;5116057;28;20281;-56
2021/03/24 04:52:47;;;;;;;18.55;8.75;;;;;;;5.46;70.75;100427.16;5116593;28;20039;-57
2021/03/24 04:55:14;;;;;;;18.05;10.10;;;;;;;5.47;70.85;100416.78;5099056;28;20055;-57
2021/03/24 04:57:40;;;;;;;16.95;8.90;;;;;;;5.50;70.55;100429.81;5116653;28;20046;-57
2021/03/24 05:00:24;;;;;;;18.83;8.65;;;;;;;5.56;70.18;100419.44;5116434;28;20048;-57
2021/03/24 05:02:52;;;;;;;16.95;9.40;;;;;;;5.46;70.74;100422.84;5100396;28;20078;-57
2021/03/24 05:05:23;;;;;;;14.63;8.68;;;;;;;5.46;70.83;100434.94;5115584;28;20051;-57
2021/03/24 05:07:52;;;;;;;19.95;9.13;;;;;;;5.43;71.13;100432.34;5115551;28;20066;-57
2021/03/24 05:10:20;;;;;;;14.23;8.35;;;;;;;5.45;71.16;100430.63;5107899;28;20105;-57
2021/03/24 05:12:58;;;;;;;16.35;8.32;;;;;;;5.54;70.44;100428.09;5112355;28;20051;-57
2021/03/24 05:15:29;;;;;;;16.70;8.10;;;;;;;5.57;70.53;100431.56;5113575;28;20513;-57
2021/03/24 05:17:55;;;;;;;15.55;8.80;;;;;;;5.49;70.68;100434.97;5114193;28;20051;-57
2021/03/24 05:20:28;;;;;;;15.27;8.75;;;;;;;5.52;70.57;100435.84;5114210;28;20108;-56
2021/03/24 05:22:54;;;;;;;13.70;8.32;;;;;;;5.42;71.05;100441.88;5114153;28;20052;-57
2021/03/24 05:25:19;;;;;;;17.65;8.55;;;;;;;5.51;70.70;100449.72;5114173;28;20057;-57
2021/03/24 05:27:51;;;;;;;15.10;8.95;;;;;;;5.55;70.66;100453.19;5115987;28;20043;-57
2021/03/24 05:30:23;;;;;;;14.00;8.65;;;;;;;5.59;70.28;100448.03;5116548;28;20109;-57
2021/03/24 05:32:52;;;;;;;14.48;9.00;;;;;;;5.53;70.75;100444.53;5115677;28;20036;-57
2021/03/24 05:35:34;;;;;;;15.82;8.88;;;;;;;5.45;70.63;100454.88;5115567;28;20047;-57
2021/03/24 05:38:12;;;;;;;15.25;8.80;;;;;;;5.44;70.90;100449.69;5115640;28;20154;-57
2021/03/24 05:40:47;;;;;;;18.90;9.48;;;;;;;5.45;70.88;100452.28;5115609;28;20059;-57
2021/03/24 05:43:31;;;;;;;16.15;9.00;;;;;;;5.46;70.72;100451.44;5082716;28;20043;-56
2021/03/24 05:46:17;;;;;;;16.48;10.40;;;;;;;5.50;70.69;100458.38;5115845;28;20418;-57
2021/03/24 05:48:47;;;;;;;16.20;9.07;;;;;;;5.41;71.16;100460.06;5083456;28;20044;-57
2021/03/24 05:51:24;;;;;;;13.70;8.57;;;;;;;5.39;71.00;100468.72;5116580;28;20122;-57
2021/03/24 05:54:14;;;;;;;20.90;9.77;;;;;;;5.41;70.92;100462.66;5098536;28;20052;-57
2021/03/24 05:57:11;;;;;;;16.67;8.73;;;;;;;5.37;71.24;100464.38;5115273;28;20422;-57
2021/03/24 05:59:57;;;;;;;17.23;9.60;;;;;;;5.38;71.17;100461.75;5115535;28;20052;-57
2021/03/24 06:02:37;;;;;;;15.40;8.85;;;;;;;5.41;71.40;100466.13;5115310;28;20047;-57
2021/03/24 06:05:13;;;;;;;15.57;8.05;;;;;;;5.50;71.17;100470.50;5115085;28;20039;-57
2021/03/24 06:07:45;;;;;;;18.77;9.77;;;;;;;5.54;71.14;100462.72;5098274;28;20097;-57
2021/03/24 06:10:39;;;;;;;13.52;8.48;;;;;;;5.52;70.91;100466.19;5115343;28;20471;-57
2021/03/24 06:13:11;;;;;;;16.20;8.60;;;;;;;5.56;71.04;100468.81;5116819;28;20043;-57
2021/03/24 06:15:46;;;;;;;16.33;8.70;;;;;;;5.45;71.33;100467.88;5102794;28;20062;-56
2021/03/24 06:18:29;;;;;;;16.73;9.10;;;;;;;5.45;71.48;100465.28;5120592;28;20051;-57
2021/03/24 06:21:09;;;;;;;13.68;7.85;;;;;;;5.58;71.20;100469.69;5118673;28;20051;-57
2021/03/24 06:23:57;;;;;;;15.38;9.10;;;;;;;5.53;71.16;100473.13;5119590;28;20494;-57
2021/03/24 06:26:57;;;;;;;15.77;9.40;;;;;;;5.55;71.02;100471.38;5102826;28;20048;-57
2021/03/24 06:29:35;;;;;;;16.45;10.10;;;;;;;5.58;70.88;100479.22;5119606;27;20096;-57
2021/03/24 06:32:25;;;;;;;13.95;7.93;;;;;;;5.61;71.16;100476.63;5118338;28;20361;-57
2021/03/24 06:34:59;;;;;;;29.38;12.98;;;;;;;5.69;70.83;100480.16;5119828;28;20047;-57
2021/03/24 06:37:27;;;;;;;27.50;12.60;;;;;;;5.71;70.53;100477.53;5119318;28;20425;-57
2021/03/24 06:40:14;;;;;;;25.08;14.38;;;;;;;5.77;70.10;100480.19;5119131;28;20039;-57
2021/03/24 06:42:58;;;;;;;24.00;10.70;;;;;;;5.70;70.29;100481.03;5118125;28;20445;-57
2021/03/24 06:45:29;;;;;;;32.63;12.88;;;;;;;5.79;70.38;100481.94;5118122;28;20047;-57
2021/03/24 06:48:04;;;;;;;27.40;13.85;;;;;;;5.81;70.53;100492.31;5118234;28;20040;-57
2021/03/24 06:51:01;;;;;;;31.77;13.82;;;;;;;5.86;69.89;100486.28;5119228;28;20043;-57
2021/03/24 06:53:47;;;;;;;22.90;12.18;;;;;;;5.92;69.91;100484.59;5119137;28;20048;-57
2021/03/24 06:56:27;;;;;;;23.02;11.85;;;;;;;5.97;69.90;100488.09;5117894;28;20441;-57
2021/03/24 06:59:16;;;;;;;21.25;10.73;;;;;;;6.08;69.75;100483.84;5102142;28;20126;-57
2021/03/24 07:02:14;;;;;;;18.55;10.57;;;;;;;6.15;69.57;100485.59;5118245;28;20051;-57
2021/03/24 07:05:16;;;;;;;16.38;9.75;;;;;;;6.15;69.41;100488.19;5102659;28;20055;-57
2021/03/24 07:08:00;;;;;;;14.57;8.70;;;;;;;6.16;69.48;100481.25;5117688;28;20055;-56
2021/03/24 07:11:05;;;;;;;16.73;9.98;;;;;;;6.22;69.26;100491.69;5118113;28;20047;-57
2021/03/24 07:13:33;;;;;;;17.92;10.02;;;;;;;6.26;69.56;100499.50;5117441;28;20051;-57
2021/03/24 07:16:21;;;;;;;15.88;9.50;;;;;;;6.35;69.15;100493.47;5118438;28;20063;-57
2021/03/24 07:18:49;;;;;;;21.30;12.43;;;;;;;6.33;69.39;100502.97;5118683;28;20077;-57
2021/03/24 07:21:41;;;;;;;23.98;17.38;;;;;;;6.37;68.79;100494.34;5100470;28;20031;-57
2021/03/24 07:24:34;;;;;;;26.48;15.82;;;;;;;6.44;68.79;100492.63;5093347;28;20065;-57
2021/03/24 07:27:15;;;;;;;21.48;12.95;;;;;;;6.51;68.99;100500.44;5100455;28;20054;-57
2021/03/24 07:30:10;;;;;;;16.65;10.73;;;;;;;6.55;68.39;100496.09;5117619;28;20066;-57
2021/03/24 07:32:38;;;;;;;20.95;11.85;;;;;;;6.50;68.66;100498.72;5117503;28;20043;-57
2021/03/24 07:35:34;;;;;;;18.67;11.60;;;;;;;6.41;68.50;100503.03;5100280;28;20051;-57
2021/03/24 07:38:18;;;;;;;18.00;10.85;;;;;;;6.50;68.68;100503.03;5097928;28;20036;-57
2021/03/24 07:40:52;;;;;;;18.58;10.00;;;;;;;6.60;68.54;100504.81;5092607;28;20514;-57
2021/03/24 07:43:23;;;;;;;17.45;9.70;;;;;;;6.72;68.15;100516.97;5096570;28;20399;-57
2021/03/24 07:46:04;;;;;;;15.38;9.23;;;;;;;6.78;67.93;100510.03;5096193;28;20089;-57
2021/03/24 07:49:01;;;;;;;16.67;9.75;;;;;;;6.77;67.88;100518.72;5095568;28;20059;-57
2021/03/24 07:51:45;;;;;;;18.90;9.00;;;;;;;6.84;67.94;100511.78;5096682;28;20481;-57
2021/03/24 07:54:16;;;;;;;16.15;9.50;;;;;;;6.92;67.32;100507.47;5097345;28;20052;-57
2021/03/24 07:57:08;;;;;;;18.75;9.73;;;;;;;6.88;67.29;100513.50;5097169;28;20353;-57
2021/03/24 07:59:40;;;;;;;19.02;10.85;;;;;;;6.96;67.42;100505.72;5077817;28;20043;-57
2021/03/24 08:02:34;;;;;;;19.48;9.55;;;;;;;7.04;67.27;100511.78;5096581;28;20052;-57
2021/03/24 08:05:18;;;;;;;;;;;;;;;6.80;67.78;100525.66;5096844;28;20126;-57
2021/03/24 08:07:54;;;;;;;19.17;11.88;;;;;;;6.95;67.53;100520.47;5097083;28;19920;-57
2021/03/24 08:10:36;;;;;;;19.02;10.55;;;;;;;7.03;67.52;100520.50;5096404;28;20048;-57
2021/03/24 08:13:37;;;;;;;24.30;13.10;;;;;;;6.97;66.81;100516.13;5080976;28;20093;-57
2021/03/24 08:16:26;;;;;;;19.30;11.98;;;;;;;6.96;67.21;100518.75;5072010;28;20048;-57
2021/03/24 08:19:01;;;;;;;26.85;14.73;;;;;;;6.91;67.07;100517.88;5096057;28;20430;-57
2021/03/24 08:21:57;;;;;;;21.60;12.13;;;;;;;7.00;66.95;100508.31;5096707;28;20040;-57
2021/03/24 08:24:48;;;;;;;22.45;12.32;;;;;;;7.12;66.67;100509.22;5096715;28;20412;-57
2021/03/24 08:27:30;;;;;;;23.00;12.23;;;;;;;7.10;66.45;100511.81;5096856;28;20044;-57
2021/03/24 08:30:12;;;;;;;42.00;20.25;;;;;;;6.99;66.85;100509.19;5095753;28;20396;-57
2021/03/24 08:33:03;;;;;;;40.57;21.40;;;;;;;6.90;67.09;100503.97;5096746;28;20040;-57
2021/03/24 08:35:31;;;;;;;30.92;15.48;;;;;;;6.91;67.14;100508.31;5064179;28;20266;-57
2021/03/24 08:38:21;;;;;;;29.80;14.88;;;;;;;7.01;66.83;100510.06;5096500;28;20070;-57
2021/03/24 08:41:19;;;;;;;26.52;14.20;;;;;;;6.98;67.14;100510.06;5097060;28;20036;-58
2021/03/24 08:44:22;;;;;;;24.77;14.93;;;;;;;7.07;67.20;100514.41;5095191;28;20051;-58
2021/03/24 08:46:55;;;;;;;51.38;30.38;;;;;;;7.09;67.40;100509.22;5095465;28;20338;-58
2021/03/24 08:49:26;;;;;;;26.02;16.73;;;;;;;6.99;67.47;100505.75;5095761;28;20051;-58
2021/03/24 08:51:55;;;;;;;23.05;14.15;;;;;;;7.13;67.30;100516.16;5079137;28;20114;-58
2021/03/24 08:54:51;;;;;;;20.15;11.10;;;;;;;7.21;66.64;100512.69;5096516;28;20048;-58
2021/03/24 08:57:40;;;;;;;16.92;11.52;;;;;;;7.35;66.65;100510.06;5096503;28;20048;-58
2021/03/24 09:00:11;;;;;;;15.40;10.13;;;;;;;7.49;66.28;100500.47;5096431;28;20044;-58
2021/03/24 09:03:09;;;;;;;19.60;12.63;;;;;;;7.43;65.97;100508.31;5095582;28;20056;-58
2021/03/24 09:05:34;;;;;;;25.33;16.08;;;;;;;7.34;66.53;100505.69;5077295;28;20052;-58
2021/03/24 09:08:31;;;;;;;18.10;10.35;;;;;;;7.50;65.36;100511.78;5078481;28;20052;-58
2021/03/24 09:11:21;;;;;;;15.20;9.38;;;;;;;7.62;65.08;100510.91;5095432;28;20052;-58
2021/03/24 09:14:05;;;;;;;16.38;9.85;;;;;;;7.76;64.17;100506.50;5096628;28;20051;-58
2021/03/24 09:17:04;;;;;;;18.88;9.75;;;;;;;7.87;64.45;100509.97;5096258;28;20438;-58
2021/03/24 09:19:51;;;;;;;16.52;9.77;;;;;;;8.04;64.63;100511.66;5096810;28;20056;-58
2021/03/24 09:22:38;;;;;;;15.63;10.75;;;;;;;7.97;64.09;100516.03;5075083;28;20438;-58
2021/03/24 09:25:18;;;;;;;15.27;9.48;;;;;;;8.16;64.15;100509.88;5095015;28;20454;-58
2021/03/24 09:27:59;;;;;;;19.35;10.65;;;;;;;8.29;63.64;100505.47;5078611;28;20047;-58
2021/03/24 09:30:34;;;;;;;18.38;9.90;;;;;;;8.18;63.51;100509.84;5095048;28;20466;-58
2021/03/24 09:33:23;;;;;;;14.25;9.18;;;;;;;8.14;63.93;100508.13;5095278;28;20457;-58
2021/03/24 09:36:06;;;;;;;14.07;9.38;;;;;;;8.24;63.26;100502.00;5096106;28;20055;-58
2021/03/24 09:38:34;;;;;;;18.15;9.55;;;;;;;8.34;62.90;100489.78;5095269;28;20041;-58
2021/03/24 09:41:24;;;;;;;13.35;8.63;;;;;;;8.46;62.32;100501.94;5095201;28;20067;-58
2021/03/24 09:43:55;;;;;;;15.98;9.25;;;;;;;8.40;62.29;100484.56;5078780;28;20074;-58
2021/03/24 09:46:34;;;;;;;14.13;9.10;;;;;;;8.53;62.06;100490.56;5095076;28;20048;-58
2021/03/24 09:49:02;;;;;;;16.75;9.50;;;;;;;8.57;62.02;100481.84;5082264;28;20067;-58
2021/03/24 09:51:28;;;;;;;32.95;16.00;;;;;;;8.70;61.48;100485.25;5098799;28;20040;-58
2021/03/24 09:54:14;;;;;;;129.52;53.53;;;;;;;8.63;60.64;100484.41;5099854;28;20054;-58
2021/03/24 09:56:40;;;;;;;186.40;78.60;;;;;;;8.69;60.99;100475.69;5099044;28;20056;-58
2021/03/24 09:59:25;;;;;;;93.18;43.58;;;;;;;8.68;60.59;100487.88;5081972;28;20044;-58
2021/03/24 10:02:00;;;;;;;32.28;18.70;;;;;;;8.78;60.24;100489.53;5099453;28;20445;-58
2021/03/24 10:04:45;;;;;;;19.02;11.13;;;;;;;8.82;59.77;100485.16;5066434;28;20121;-58
2021/03/24 10:07:21;;;;;;;15.68;9.68;;;;;;;8.75;58.87;100478.25;5098777;28;20048;-58
2021/03/24 10:10:15;;;;;;;13.68;8.80;;;;;;;8.70;59.00;100480.88;5098975;28;20044;-58
2021/03/24 10:12:48;;;;;;;13.25;8.68;;;;;;;8.83;59.67;100473.81;5098701;28;20059;-58
2021/03/24 10:15:17;;;;;;;13.77;9.25;;;;;;;8.89;59.61;100484.25;5081578;28;20055;-58
2021/03/24 10:18:00;;;;;;;14.30;8.95;;;;;;;9.06;59.57;100474.50;5098991;28;20097;-59
2021/03/24 10:20:33;;;;;;;15.73;9.27;;;;;;;9.22;59.99;100480.47;5082896;28;20130;-58
2021/03/24 10:23:21;;;;;;;15.23;9.85;;;;;;;9.32;59.29;100479.50;5098463;28;20052;-59
2021/03/24 10:25:50;;;;;;;19.30;10.73;;;;;;;9.25;59.42;100475.22;5098368;28;20067;-58
2021/03/24 10:28:21;;;;;;;16.80;10.82;;;;;;;9.32;59.71;100468.19;5098325;28;20051;-58
2021/03/24 10:31:10;;;;;;;18.55;11.07;;;;;;;9.22;58.97;100464.78;5081913;28;20445;-58
2021/03/24 10:33:54;;;;;;;17.23;9.95;;;;;;;9.31;59.19;100463.84;5098267;28;20063;-58
2021/03/24 10:36:52;;;;;;;21.25;11.80;;;;;;;9.20;59.64;100469.19;5098095;28;20044;-58
2021/03/24 10:39:35;;;;;;;19.63;11.23;;;;;;;9.26;59.04;100465.63;5090721;28;20056;-58
2021/03/24 10:42:59;;;;;;;17.40;11.23;;;;;;;9.08;58.93;100459.69;5097831;28;20462;-58
2021/03/24 10:45:33;;;;;;;15.73;10.10;;;;;;;9.23;59.43;100463.94;5076741;28;20067;-58
2021/03/24 10:48:10;;;;;;;19.15;11.73;;;;;;;9.36;58.93;100468.16;5091783;28;20060;-58
2021/03/24 10:50:37;;;;;;;16.65;11.10;;;;;;;9.36;58.56;100459.47;5097811;28;20043;-59
2021/03/24 10:53:30;;;;;;;22.23;12.13;;;;;;;9.26;58.04;100463.91;5080760;28;20044;-59
2021/03/24 10:56:11;;;;;;;25.80;15.10;;;;;;;9.14;59.43;100450.94;5094817;28;20060;-58
2021/03/24 10:58:53;;;;;;;27.75;17.95;;;;;;;9.25;59.03;100451.69;5096962;28;20032;-58
2021/03/24 11:01:56;;;;;;;22.38;13.18;;;;;;;9.39;58.90;100454.16;5066193;28;20113;-58
2021/03/24 11:04:59;;;;;;;22.20;13.20;;;;;;;9.43;58.95;100455.03;5098722;28;20047;-59
2021/03/24 11:07:53;;;;;;;357.45;179.82;;;;;;;9.36;59.24;100454.22;5097923;28;20137;-58
2021/03/24 11:10:36;;;;;;;89.00;46.67;;;;;;;9.13;59.01;100446.56;5082966;28;20350;-58
2021/03/24 11:13:06;;;;;;;45.13;25.52;;;;;;;9.46;58.95;100455.00;5080461;28;20342;-59
2021/03/24 11:15:37;;;;;;;34.40;21.42;;;;;;;9.50;58.09;100454.94;5064103;28;20044;-58
2021/03/24 11:18:11;;;;;;;44.30;26.63;;;;;;;9.54;57.97;100456.63;5097057;28;20446;-58
2021/03/24 11:20:47;;;;;;;26.10;16.67;;;;;;;9.46;57.65;100455.88;5097097;28;20480;-59
2021/03/24 11:23:14;;;;;;;23.05;12.18;;;;;;;9.49;58.17;100452.31;5096978;28;20048;-58
2021/03/24 11:25:49;;;;;;;22.27;11.63;;;;;;;9.60;57.92;100450.47;5080591;28;20093;-59
2021/03/24 11:28:33;;;;;;;29.25;20.55;;;;;;;9.48;57.63;100450.59;5098072;28;20071;-58
2021/03/24 11:31:07;;;;;;;231.77;95.85;;;;;;;9.33;56.80;100449.03;5097718;28;20077;-59
2021/03/24 11:33:32;;;;;;;59.22;30.65;;;;;;;9.10;57.61;100451.84;5097351;28;20055;-59
2021/03/24 11:36:14;;;;;;;25.67;17.13;;;;;;;9.00;57.63;100445.84;5097546;28;20048;-59
2021/03/24 11:38:47;;;;;;;21.10;13.25;;;;;;;9.19;57.73;100446.53;5081481;28;20048;-58
2021/03/24 11:41:20;;;;;;;;;;;;;;;8.98;57.86;100444.13;5098244;28;20120;-59
2021/03/24 11:43:54;;;;;;;24.52;15.15;;;;;;;9.13;57.67;100438.72;5097510;28;19927;-58
2021/03/24 11:46:21;;;;;;;23.77;14.32;;;;;;;9.14;57.11;100440.50;5080721;28;20039;-58
2021/03/24 11:49:14;;;;;;;21.23;14.23;;;;;;;9.20;56.44;100443.06;5096825;28;20044;-58
2021/03/24 11:51:57;;;;;;;64.28;33.20;;;;;;;9.08;56.65;100435.31;5097458;28;20448;-58
2021/03/24 11:55:02;;;;;;;47.60;28.42;;;;;;;9.09;57.16;100434.41;5097243;28;20043;-58
2021/03/24 11:57:37;;;;;;;21.75;12.95;;;;;;;9.16;57.10;100430.00;5097461;28;20090;-58
2021/03/24 12:00:23;;;;;;;21.70;13.60;;;;;;;9.07;57.23;100425.75;5096658;28;20059;-58
2021/03/24 12:02:54;;;;;;;23.00;15.52;;;;;;;9.07;57.22;100428.38;5096616;28;20047;-58